Nearby METAR Reports

 

KIAD - Wash Dc/Dulles, Virginia, USA
Distance from station: ESE 7mi, 11km
Updated: Wed, 04-Aug-2021 3:52am EDT
Mostly cloudy
Mostly cloudy
 Wind from WNW
Wind: WNW 3 mph , 6 km/h
Temperature: 63°F , 17°C
Dew Point: 59°F , 15°C
Humidity: 88%
Barometer: 30.09 inHg , 1019 hPa
Clouds: Mostly cloudy
Visibility: 10 miles , 16 km
Cloud details: Few Clouds 11000 ft
Mostly cloudy 25000 ft
2021/08/04 07:52 KIAD 040752Z 30003KT 10SM FEW110 BKN250 17/15 A3009 RMK AO2 SLP186 T01670150
KJYO - Leesburg/Godfrey, Virginia, USA
Distance from station: N 7mi, 12km
Updated: Wed, 04-Aug-2021 4:15am EDT
Overcast
Overcast
 Wind from NNE
Wind: NNE 3 mph , 6 km/h
Temperature: 63°F , 17°C
Dew Point: 59°F , 15°C
Humidity: 88%
Barometer: 30.11 inHg , 1019.6 hPa
Clouds: Overcast
Visibility: 10 miles , 16 km
Cloud details: Overcast 11000 ft
2021/08/04 08:15 KJYO 040815Z AUTO 02003KT 10SM OVC110 17/15 A3011 RMK AO2
KHEF - Manassas Muni, Virginia, USA
Distance from station: S 17mi, 28km
Updated: Wed, 04-Aug-2021 3:56am EDT
Clear
Clear
 Wind from calm
Wind: Calm
Temperature: 61°F , 16°C
Dew Point: 59°F , 15°C
Humidity: 94%
Barometer: 30.09 inHg , 1019 hPa
Clouds: Clear
Visibility: 10 miles , 16 km
2021/08/04 07:56 KHEF 040756Z AUTO 00000KT 10SM CLR 16/15 A3009 RMK AO2 SLP195 T01560150
 
KGAI - Gaithersburg, Maryland, USA
Distance from station: NE 26mi, 41km
Updated: Wed, 04-Aug-2021 3:56am EDT
Partly cloudy
Partly cloudy
 Wind from calm
Wind: Calm
Temperature: 63°F , 17°C
Dew Point: 61°F , 16°C
Humidity: 94%
Barometer: 30.11 inHg , 1019.6 hPa
Clouds: Partly cloudy
Visibility: 10 miles , 16 km
Cloud details: Partly cloudy 11000 ft
2021/08/04 07:56 KGAI 040756Z AUTO 00000KT 10SM SCT110 17/16 A3011 RMK AO2 SLP207 T01670156 PNO $
KDAA - Fort Belvoir/Dav, Virginia, USA
Distance from station: SE 27mi, 44km
Updated: Wed, 04-Aug-2021 3:56am EDT
Clear
Clear
 Wind from calm
Wind: Calm
Temperature: 63°F , 17°C
Dew Point: 63°F , 17°C
Humidity: 100%
Barometer: 30.08 inHg , 1018.6 hPa
Clouds: Clear
Visibility: 10 miles , 16 km
2021/08/04 07:56 KDAA 040756Z AUTO 00000KT 10SM CLR 17/17 A3008 RMK AO2 SLP188 T01730165 $
KHWY - Warrenton, Virginia, USA
Distance from station: SSW 27mi, 44km
Updated: Wed, 04-Aug-2021 3:55am EDT
Mist, Clear
Mist, Clear
 Wind from calm
Wind: Calm
Temperature: 59°F , 15°C
Dew Point: 57°F , 14°C
Humidity: 94%
Barometer: 30.09 inHg , 1019 hPa
Summary: Mist
Clouds: Clear
Visibility: 4 miles , 6 km
2021/08/04 07:55 KHWY 040755Z AUTO 00000KT 4SM BR CLR 15/14 A3009 RMK AO2 T01510137
 
KDCA - Washington/Natl, Washington D.c., USA
Distance from station: ESE 30mi, 48km
Updated: Wed, 04-Aug-2021 3:52am EDT
Mostly cloudy
Mostly cloudy
 Wind from NE
Wind: NE 6 mph , 9 km/h
Temperature: 70°F , 21°C
Dew Point: 63°F , 17°C
Humidity: 78%
Barometer: 30.09 inHg , 1019 hPa
Clouds: Mostly cloudy
Visibility: 10 miles , 16 km
Cloud details: Mostly cloudy 25000 ft
2021/08/04 07:52 KDCA 040752Z 05005KT 10SM BKN250 21/17 A3009 RMK AO2 SLP188 T02060172
KFDK - Frederick, Maryland, USA
Distance from station: NNE 33mi, 53km
Updated: Wed, 04-Aug-2021 4:15am EDT
Mostly cloudy
Mostly cloudy
 Wind from calm
Wind: Calm
Temperature: 61°F , 16°C
Dew Point: 61°F , 16°C
Humidity: 100%
Barometer: 30.10 inHg , 1019.3 hPa
Clouds: Mostly cloudy
Visibility: 10 miles , 16 km
Cloud details: Mostly cloudy 12000 ft
2021/08/04 08:15 KFDK 040815Z AUTO 00000KT 10SM BKN120 16/16 A3010 RMK AO2
KOKV - Winchester Rgnl, Virginia, USA
Distance from station: WNW 33mi, 54km
Updated: Wed, 04-Aug-2021 3:55am EDT
Overcast
Overcast
 Wind from calm
Wind: Calm
Temperature: 61°F , 16°C
Dew Point: 59°F , 15°C
Humidity: 94%
Barometer: 30.08 inHg , 1018.6 hPa
Clouds: Overcast
Visibility: 10 miles , 16 km
Cloud details: Partly cloudy 8500 ft
Overcast 11000 ft
2021/08/04 07:55 KOKV 040755Z AUTO 00000KT 10SM SCT085 OVC110 16/15 A3008 RMK AO2
 
KCJR - Culpeper, Virginia, USA
Distance from station: SSW 34mi, 54km
Updated: Wed, 04-Aug-2021 3:55am EDT
Clear
Clear
 Wind from calm
Wind: Calm
Temperature: 61°F , 16°C
Dew Point: 61°F , 16°C
Humidity: 100%
Barometer: 30.10 inHg , 1019.3 hPa
Clouds: Clear
Visibility: 7 miles , 11 km
2021/08/04 07:55 KCJR 040755Z AUTO 00000KT 7SM CLR 16/16 A3010 RMK AO2 T01620155
KCGS - College Park, Maryland, USA
Distance from station: E 35mi, 56km
Updated: Wed, 04-Aug-2021 3:55am EDT
Clear
Clear
 Wind from calm
Wind: Calm
Temperature: 63°F , 17°C
Dew Point: 61°F , 16°C
Humidity: 94%
Barometer: 30.08 inHg , 1018.6 hPa
Clouds: Clear
Visibility: 10 miles , 16 km
2021/08/04 07:55 KCGS 040755Z AUTO 00000KT 10SM CLR 17/16 A3008 RMK AO1 T01710161
KNYG - Quantico Mcaf, Virginia, USA
Distance from station: SSE 35mi, 57km
Updated: Wed, 04-Aug-2021 3:56am EDT
Clear
Clear
 Wind from WNW
Wind: WNW 7 mph , 11 km/h
Temperature: 66°F , 19°C
Dew Point: 63°F , 17°C
Humidity: 88%
Barometer: 30.08 inHg , 1018.6 hPa
Clouds: Clear
Visibility: 8 miles , 13 km
2021/08/04 07:56 KNYG 040756Z AUTO 29006KT 8SM CLR 19/17 A3008 RMK AO2 SLP187 T01890167 PNO
 
KFRR - Fort Royal, Virginia, USA
Distance from station: W 37mi, 59km
Updated: Wed, 04-Aug-2021 4:15am EDT
Overcast
Overcast
 Wind from calm
Wind: Calm
Temperature: 63°F , 17°C
Dew Point: 61°F , 16°C
Humidity: 94%
Barometer: 30.08 inHg , 1018.6 hPa
Clouds: Overcast
Visibility: 10 miles , 16 km
Cloud details: Overcast 11000 ft
2021/08/04 08:15 KFRR 040815Z AUTO 00000KT 10SM OVC110 17/16 A3008 RMK AO1
KMRB - Martinsburg, West Virginia, USA
Distance from station: NW 38mi, 61km
Updated: Wed, 04-Aug-2021 3:53am EDT
Overcast
Overcast
 Wind from calm
Wind: Calm
Temperature: 64°F , 18°C
Dew Point: 59°F , 15°C
Humidity: 83%
Barometer: 30.09 inHg , 1019 hPa
Clouds: Overcast
Visibility: 10 miles , 16 km
Cloud details: Overcast 11000 ft
2021/08/04 07:53 KMRB 040753Z AUTO 00000KT 10SM OVC110 18/15 A3009 RMK AO2 SLP183 T01780150
KADW - Andrews Afb, Maryland, USA
Distance from station: ESE 39mi, 63km
Updated: Wed, 04-Aug-2021 3:56am EDT
Clear
Clear
 Wind from NE
Wind: NE 3 mph , 6 km/h
Temperature: 64°F , 18°C
Dew Point: 61°F , 16°C
Humidity: 88%
Barometer: 30.07 inHg , 1018.3 hPa
Clouds: Clear
Visibility: 10 miles , 16 km
2021/08/04 07:56 KADW 040756Z AUTO 04003KT 10SM CLR 18/16 A3007 RMK AO2 SLP188 T01840160 $
 
KRMN - Stafford Regnl, Virginia, USA
Distance from station: S 39mi, 63km
Updated: Wed, 04-Aug-2021 3:55am EDT
Clear
Clear
 Wind from calm
Wind: Calm
Temperature: 63°F , 17°C
Dew Point: 61°F , 16°C
Humidity: 94%
Barometer: 30.12 inHg , 1020 hPa
Clouds: Clear
Visibility: 10 miles , 16 km
2021/08/04 07:55 KRMN 040755Z AUTO 00000KT 10SM CLR 17/16 A3012 RMK AO2 T01690155
KFME - Fort Meade, Maryland, USA
Distance from station: ENE 44mi, 70km
Updated: Wed, 04-Aug-2021 3:55am EDT
Clear
Clear
 Wind from calm
Wind: Calm
Temperature: 61°F , 16°C
Dew Point: 61°F , 16°C
Humidity: 100%
Barometer: 30.11 inHg , 1019.6 hPa
Clouds: Clear
Visibility: 10 miles , 16 km
2021/08/04 07:55 KFME 040755Z AUTO 00000KT 10SM CLR 16/16 A3011 RMK AO1
KRSP - Nsf Thurmont, Maryland, USA
Distance from station: N 48mi, 77km
Updated: Wed, 04-Aug-2021 4:54am EDT
Overcast
Overcast
 Wind from SE
Wind: SE 5 mph , 7 km/h
Temperature: 64°F , 18°C
Dew Point: 55°F , 13°C
Humidity: 73%
Barometer: 30.14 inHg , 1020.7 hPa
Clouds: Overcast
Visibility: 10 miles , 16 km
Cloud details: Few Clouds 7000 ft
Overcast 10000 ft
2021/08/04 08:54 KRSP 040854Z AUTO 14004KT 10SM FEW070 OVC100 18/13 A3014 RMK AO2 SLP199 T01780133 58003 TSNO $
 
KEZF - Fredericksb/Shan, Virginia, USA
Distance from station: S 48mi, 78km
Updated: Wed, 04-Aug-2021 3:55am EDT
Clear
Clear
 Wind from calm
Wind: Calm
Temperature: 64°F , 18°C
Dew Point: 64°F , 18°C
Humidity: 100%
Barometer: 30.06 inHg , 1017.9 hPa
Clouds: Clear
Visibility: 10 miles , 16 km
2021/08/04 07:55 KEZF 040755Z AUTO 00000KT 10SM CLR 18/18 A3006 RMK AO2 T01800180
KBWI - Balto/Wash Intl, Maryland, USA
Distance from station: ENE 49mi, 80km
Updated: Wed, 04-Aug-2021 3:54am EDT
Overcast
Overcast
 Wind from calm
Wind: Calm
Temperature: 64°F , 18°C
Dew Point: 61°F , 16°C
Humidity: 88%
Barometer: 30.08 inHg , 1018.6 hPa
Clouds: Overcast
Visibility: 10 miles , 16 km
Cloud details: Overcast 25000 ft
2021/08/04 07:54 KBWI 040754Z 00000KT 10SM OVC250 18/16 A3008 RMK AO2 SLP184 T01830161